createdAt,value
2023-02-16T00:00:00.448Z,99.99
2023-02-16T00:01:00.471Z,99.99
2023-02-16T00:02:00.536Z,99.99
2023-02-16T00:03:00.428Z,99.99
2023-02-16T00:04:00.401Z,99.99
2023-02-16T00:05:00.385Z,99.99
2023-02-16T00:06:00.410Z,99.99
2023-02-16T00:07:00.389Z,99.99
2023-02-16T00:08:00.373Z,99.99
2023-02-16T00:09:00.330Z,99.99
2023-02-16T00:10:00.326Z,99.99
2023-02-16T00:11:00.524Z,99.99
2023-02-16T00:12:00.308Z,99.99
2023-02-16T00:13:00.277Z,99.99
2023-02-16T00:14:00.268Z,99.99
2023-02-16T00:15:00.253Z,99.99
2023-02-16T00:16:00.361Z,99.99
2023-02-16T00:17:00.245Z,99.99
2023-02-16T00:18:00.225Z,99.99
2023-02-16T00:19:00.223Z,99.99
2023-02-16T00:20:00.192Z,99.99
2023-02-16T00:21:00.176Z,99.99
2023-02-16T00:22:00.294Z,99.99
2023-02-16T00:23:00.151Z,99.99
2023-02-16T00:24:00.138Z,99.99
2023-02-16T00:25:00.155Z,99.99
2023-02-16T00:26:00.125Z,99.99
2023-02-16T00:27:00.112Z,99.99
2023-02-16T00:28:00.115Z,99.99
2023-02-16T00:29:00.122Z,99.99
2023-02-16T00:30:00.124Z,99.99
2023-02-16T00:31:00.221Z,99.99
2023-02-16T00:32:00.259Z,99.99
2023-02-16T00:33:00.024Z,99.99
2023-02-16T00:34:00.012Z,99.99
2023-02-16T00:35:00.015Z,99.99
2023-02-16T00:35:59.990Z,99.99
2023-02-16T00:36:59.988Z,99.99
2023-02-16T00:37:59.964Z,99.99
2023-02-16T00:38:59.954Z,99.99
2023-02-16T00:39:59.937Z,99.99
2023-02-16T00:40:59.930Z,99.99
2023-02-16T00:41:59.931Z,99.99
2023-02-16T00:42:59.902Z,99.99
2023-02-16T00:43:59.881Z,99.99
2023-02-16T00:44:59.874Z,99.99
2023-02-16T00:45:59.905Z,99.99
2023-02-16T00:46:59.862Z,99.99
2023-02-16T00:47:59.834Z,99.99
2023-02-16T00:48:59.829Z,99.99
2023-02-16T00:49:59.812Z,99.99
2023-02-16T00:50:59.823Z,99.99
2023-02-16T00:51:59.804Z,99.99
2023-02-16T00:52:59.773Z,99.99
2023-02-16T00:53:59.760Z,99.99
2023-02-16T00:54:59.746Z,99.99
2023-02-16T00:55:59.731Z,99.99
2023-02-16T00:56:59.736Z,99.99
2023-02-16T00:57:59.702Z,99.99
2023-02-16T00:58:59.700Z,99.99
2023-02-16T00:59:59.680Z,99.99
2023-02-16T01:00:59.666Z,99.99
2023-02-16T01:01:59.690Z,99.99
2023-02-16T01:02:59.697Z,99.99
2023-02-16T01:03:59.646Z,99.99
2023-02-16T01:04:59.632Z,99.99
2023-02-16T01:05:59.600Z,99.99
2023-02-16T01:06:59.609Z,99.99
2023-02-16T01:07:59.593Z,99.99
2023-02-16T01:08:59.570Z,99.99
2023-02-16T01:09:59.544Z,99.99
2023-02-16T01:10:59.534Z,99.99
2023-02-16T01:11:59.527Z,99.99
2023-02-16T01:12:59.522Z,99.99
2023-02-16T01:13:59.494Z,99.99
2023-02-16T01:14:59.482Z,99.99
2023-02-16T01:15:59.607Z,99.99
2023-02-16T01:16:59.459Z,99.99
2023-02-16T01:17:59.453Z,99.99
2023-02-16T01:18:59.431Z,99.99
2023-02-16T01:19:59.414Z,99.99
2023-02-16T01:20:59.405Z,99.99
2023-02-16T01:21:59.392Z,99.99
2023-02-16T01:22:59.410Z,99.99
2023-02-16T01:23:59.367Z,99.99
2023-02-16T01:24:59.352Z,99.99
2023-02-16T01:25:59.346Z,99.99
2023-02-16T01:26:59.327Z,99.99
2023-02-16T01:27:59.326Z,99.99
2023-02-16T01:28:59.305Z,99.99
2023-02-16T01:29:59.352Z,99.99
2023-02-16T01:30:59.328Z,99.99
2023-02-16T01:31:59.465Z,99.99
2023-02-16T01:32:59.268Z,99.99
2023-02-16T01:33:59.233Z,99.99
2023-02-16T01:34:59.224Z,99.99
2023-02-16T01:35:59.248Z,99.99
2023-02-16T01:36:59.201Z,99.99
2023-02-16T01:37:59.202Z,99.99
2023-02-16T01:38:59.195Z,99.99
2023-02-16T01:39:59.161Z,99.99
2023-02-16T01:40:59.148Z,99.99
2023-02-16T01:41:59.136Z,99.99
2023-02-16T01:42:59.151Z,99.99
2023-02-16T01:43:59.102Z,99.99
2023-02-16T01:44:59.096Z,99.99
2023-02-16T01:45:59.083Z,99.99
2023-02-16T01:46:59.064Z,99.99
2023-02-16T01:47:59.059Z,99.99
2023-02-16T01:48:59.061Z,99.99
2023-02-16T01:50:00.782Z,99.99
2023-02-16T01:50:59.021Z,99.99
2023-02-16T01:51:59.019Z,99.99
2023-02-16T01:52:58.989Z,99.99
2023-02-16T01:53:58.991Z,99.99
2023-02-16T01:54:59.064Z,99.99
2023-02-16T01:55:58.955Z,99.99
2023-02-16T01:56:58.944Z,99.99
2023-02-16T01:57:58.925Z,99.99
2023-02-16T01:58:58.932Z,99.99
2023-02-16T01:59:58.898Z,99.99
2023-02-16T02:00:58.895Z,99.99
2023-02-16T02:01:58.979Z,99.99
2023-02-16T02:02:58.882Z,99.99
2023-02-16T02:03:58.864Z,99.99
2023-02-16T02:04:58.836Z,99.99
2023-02-16T02:05:58.826Z,99.99
2023-02-16T02:06:58.814Z,99.99
2023-02-16T02:07:58.805Z,99.99
2023-02-16T02:08:58.800Z,99.99
2023-02-16T02:09:58.773Z,99.99
2023-02-16T02:10:58.781Z,99.99
2023-02-16T02:11:58.749Z,99.99
2023-02-16T02:12:58.803Z,99.99
2023-02-16T02:13:58.742Z,99.99
2023-02-16T02:14:58.705Z,99.99
2023-02-16T02:15:58.726Z,99.99
2023-02-16T02:16:58.691Z,99.99
2023-02-16T02:17:58.664Z,99.99
2023-02-16T02:18:58.675Z,99.99
2023-02-16T02:19:58.645Z,99.99
2023-02-16T02:20:58.628Z,99.99
2023-02-16T02:21:58.618Z,99.99
2023-02-16T02:22:58.606Z,99.99
2023-02-16T02:23:58.615Z,99.99
2023-02-16T02:24:58.593Z,99.99
2023-02-16T02:25:58.560Z,99.99
2023-02-16T02:26:58.573Z,99.99
2023-02-16T02:27:58.541Z,99.99
2023-02-16T02:28:58.565Z,99.99
2023-02-16T02:29:58.542Z,99.99
2023-02-16T02:30:58.591Z,99.99
2023-02-16T02:31:58.605Z,99.99
2023-02-16T02:32:58.474Z,99.99
2023-02-16T02:33:58.483Z,99.99
2023-02-16T02:34:58.449Z,99.99
2023-02-16T02:35:58.442Z,99.99
2023-02-16T02:36:58.425Z,99.99
2023-02-16T02:37:58.417Z,99.99
2023-02-16T02:38:58.414Z,99.99
2023-02-16T02:39:58.383Z,99.99
2023-02-16T02:40:58.370Z,99.99
2023-02-16T02:41:58.359Z,99.99
2023-02-16T02:42:58.369Z,99.99
2023-02-16T02:43:58.353Z,99.99
2023-02-16T02:44:58.324Z,99.99
2023-02-16T02:45:58.303Z,99.99
2023-02-16T02:46:58.302Z,99.99
2023-02-16T02:47:58.280Z,99.99
2023-02-16T02:48:58.293Z,99.99
2023-02-16T02:49:58.253Z,99.99
2023-02-16T02:50:58.245Z,99.99
2023-02-16T02:51:58.230Z,99.99
2023-02-16T02:52:58.219Z,99.99
2023-02-16T02:53:58.241Z,99.99
2023-02-16T02:54:58.192Z,99.99
2023-02-16T02:55:58.180Z,99.99
2023-02-16T02:56:58.171Z,99.99
2023-02-16T02:57:58.159Z,99.99
2023-02-16T02:58:58.164Z,99.99
2023-02-16T02:59:58.150Z,99.99
2023-02-16T03:00:58.151Z,99.99
2023-02-16T03:01:58.147Z,99.99
2023-02-16T03:02:58.096Z,99.99
2023-02-16T03:03:58.092Z,99.99
2023-02-16T03:04:58.088Z,99.99
2023-02-16T03:05:58.060Z,99.99
2023-02-16T03:06:58.045Z,99.99
2023-02-16T03:07:58.032Z,99.99
2023-02-16T03:08:58.017Z,99.99
2023-02-16T03:09:58.020Z,99.99
2023-02-16T03:10:57.990Z,99.99
2023-02-16T03:11:57.974Z,99.99
2023-02-16T03:12:57.964Z,99.99
2023-02-16T03:13:57.958Z,99.99
2023-02-16T03:14:57.983Z,99.99
2023-02-16T03:15:57.965Z,99.99
2023-02-16T03:16:57.914Z,99.99
2023-02-16T03:17:57.903Z,99.99
2023-02-16T03:18:57.890Z,99.99
2023-02-16T03:19:57.888Z,99.99
2023-02-16T03:20:57.861Z,99.99
2023-02-16T03:21:57.856Z,99.99
2023-02-16T03:22:57.839Z,99.99
2023-02-16T03:23:57.822Z,99.99
2023-02-16T03:24:57.820Z,99.99
2023-02-16T03:25:57.796Z,99.99
2023-02-16T03:26:57.789Z,99.99
2023-02-16T03:27:57.781Z,99.99
2023-02-16T03:28:57.764Z,99.99
2023-02-16T03:29:57.803Z,99.99
2023-02-16T03:30:57.769Z,99.99
2023-02-16T03:31:57.820Z,99.99
2023-02-16T03:32:57.706Z,99.99
2023-02-16T03:33:57.691Z,99.99
2023-02-16T03:34:57.688Z,99.99
2023-02-16T03:35:57.665Z,99.99
2023-02-16T03:36:57.648Z,99.99
2023-02-16T03:37:57.635Z,99.99
2023-02-16T03:38:57.626Z,99.99
2023-02-16T03:39:57.630Z,99.99
2023-02-16T03:40:57.599Z,99.99
2023-02-16T03:41:57.586Z,99.99
2023-02-16T03:42:57.573Z,99.99
2023-02-16T03:43:57.562Z,99.99
2023-02-16T03:44:57.561Z,99.99
2023-02-16T03:45:57.593Z,99.99
2023-02-16T03:46:57.544Z,99.99
2023-02-16T03:47:57.508Z,99.99
2023-02-16T03:48:57.495Z,99.99
2023-02-16T03:49:57.496Z,99.99
2023-02-16T03:50:57.473Z,99.99
2023-02-16T03:51:57.455Z,99.99
2023-02-16T03:52:57.442Z,99.99
2023-02-16T03:53:57.427Z,99.99
2023-02-16T03:54:57.434Z,99.99
2023-02-16T03:55:57.403Z,99.99
2023-02-16T03:56:57.424Z,99.99
2023-02-16T03:57:57.376Z,99.99
2023-02-16T03:58:57.368Z,99.99
2023-02-16T03:59:59.275Z,99.99
2023-02-16T04:00:57.338Z,99.99
2023-02-16T04:01:57.332Z,99.99
2023-02-16T04:02:57.345Z,99.99
2023-02-16T04:03:57.417Z,99.99
2023-02-16T04:04:57.296Z,99.99
2023-02-16T04:05:57.292Z,99.99
2023-02-16T04:06:57.262Z,99.99
2023-02-16T04:07:57.249Z,99.99
2023-02-16T04:08:57.240Z,99.99
2023-02-16T04:09:57.229Z,99.99
2023-02-16T04:10:57.228Z,99.99
2023-02-16T04:11:57.205Z,99.99
2023-02-16T04:12:57.187Z,99.99
2023-02-16T04:13:57.175Z,99.99
2023-02-16T04:14:57.162Z,99.99
2023-02-16T04:15:57.161Z,99.99
2023-02-16T04:16:57.137Z,99.99
2023-02-16T04:17:57.137Z,99.99
2023-02-16T04:18:57.136Z,99.99
2023-02-16T04:19:57.105Z,99.99
2023-02-16T04:20:57.107Z,99.99
2023-02-16T04:21:57.072Z,99.99
2023-02-16T04:22:57.068Z,99.99
2023-02-16T04:23:57.050Z,99.99
2023-02-16T04:24:57.036Z,99.99
2023-02-16T04:25:57.043Z,99.99
2023-02-16T04:26:57.016Z,99.99
2023-02-16T04:27:57.002Z,99.99
2023-02-16T04:28:56.989Z,99.99
2023-02-16T04:29:57.010Z,99.99
2023-02-16T04:30:57.135Z,99.99
2023-02-16T04:31:57.095Z,99.99
2023-02-16T04:32:56.935Z,99.99
2023-02-16T04:33:56.923Z,99.99
2023-02-16T04:34:56.929Z,99.99
2023-02-16T04:35:56.928Z,99.99
2023-02-16T04:36:56.887Z,99.99
2023-02-16T04:37:56.871Z,99.99
2023-02-16T04:38:56.858Z,99.99
2023-02-16T04:39:56.842Z,99.99
2023-02-16T04:40:56.860Z,99.99
2023-02-16T04:41:56.816Z,99.99
2023-02-16T04:42:56.805Z,99.99
2023-02-16T04:43:56.790Z,99.99
2023-02-16T04:44:56.787Z,99.99
2023-02-16T04:45:56.849Z,99.99
2023-02-16T04:46:56.763Z,99.99
2023-02-16T04:47:56.753Z,99.99
2023-02-16T04:48:56.738Z,99.99
2023-02-16T04:49:56.719Z,99.99
2023-02-16T04:50:56.738Z,99.99
2023-02-16T04:51:56.704Z,99.99
2023-02-16T04:52:56.682Z,99.99
2023-02-16T04:53:56.682Z,99.99
2023-02-16T04:54:56.660Z,99.99
2023-02-16T04:55:56.658Z,99.99
2023-02-16T04:56:56.631Z,99.99
2023-02-16T04:57:56.631Z,99.99
2023-02-16T04:58:56.611Z,99.99
2023-02-16T04:59:56.596Z,99.99
2023-02-16T05:00:56.606Z,99.99
2023-02-16T05:01:56.659Z,99.99
2023-02-16T05:02:56.565Z,99.99
2023-02-16T05:03:56.541Z,99.99
2023-02-16T05:04:56.530Z,99.99
2023-02-16T05:05:56.546Z,99.99
2023-02-16T05:06:56.523Z,99.99
2023-02-16T05:07:56.496Z,99.99
2023-02-16T05:08:56.482Z,99.99
2023-02-16T05:09:56.465Z,99.99
2023-02-16T05:10:56.471Z,99.99
2023-02-16T05:11:56.445Z,99.99
2023-02-16T05:12:56.434Z,99.99
2023-02-16T05:13:56.453Z,99.99
2023-02-16T05:14:56.411Z,99.99
2023-02-16T05:15:56.485Z,99.99
2023-02-16T05:16:56.378Z,99.99
2023-02-16T05:17:56.367Z,99.99
2023-02-16T05:18:58.708Z,99.99
2023-02-16T05:19:56.345Z,99.99
2023-02-16T05:20:56.385Z,99.99
2023-02-16T05:21:56.318Z,99.99
2023-02-16T05:22:56.335Z,99.99
2023-02-16T05:23:56.295Z,99.99
2023-02-16T05:24:56.279Z,99.99
2023-02-16T05:25:56.282Z,99.99
2023-02-16T05:26:56.248Z,99.99
2023-02-16T05:27:56.252Z,99.99
2023-02-16T05:28:56.226Z,99.99
2023-02-16T05:29:56.288Z,99.99
2023-02-16T05:30:56.268Z,99.99
2023-02-16T05:31:56.245Z,99.99
2023-02-16T05:32:56.214Z,99.99
2023-02-16T05:33:56.236Z,99.99
2023-02-16T05:34:56.164Z,99.99
2023-02-16T05:35:56.164Z,99.99
2023-02-16T05:36:56.139Z,99.99
2023-02-16T05:37:56.120Z,99.99
2023-02-16T05:38:56.117Z,99.99
2023-02-16T05:39:56.098Z,99.99
2023-02-16T05:40:56.096Z,99.99
2023-02-16T05:41:56.073Z,99.99
2023-02-16T05:42:56.051Z,99.99
2023-02-16T05:43:56.064Z,99.99
2023-02-16T05:44:56.020Z,99.99
2023-02-16T05:45:56.098Z,99.99
2023-02-16T05:46:56.010Z,99.99
2023-02-16T05:47:56.002Z,99.99
2023-02-16T05:48:56.006Z,99.99
2023-02-16T05:49:55.960Z,99.99
2023-02-16T05:50:55.947Z,99.99
2023-02-16T05:51:55.955Z,99.99
2023-02-16T05:52:55.917Z,99.99
2023-02-16T05:53:55.914Z,99.99
2023-02-16T05:54:55.917Z,99.99
2023-02-16T05:55:55.881Z,99.99
2023-02-16T05:56:55.886Z,99.99
2023-02-16T05:57:55.864Z,99.99
2023-02-16T05:58:55.852Z,99.99
2023-02-16T05:59:55.840Z,99.99
2023-02-16T06:00:55.816Z,99.99
2023-02-16T06:01:55.818Z,99.99
2023-02-16T06:02:55.892Z,99.99
2023-02-16T06:03:55.850Z,99.99
2023-02-16T06:04:55.776Z,99.99
2023-02-16T06:05:55.752Z,99.99
2023-02-16T06:06:55.796Z,99.99
2023-02-16T06:07:55.736Z,99.99
2023-02-16T06:08:55.708Z,99.99
2023-02-16T06:09:55.697Z,99.99
2023-02-16T06:10:55.818Z,99.99
2023-02-16T06:11:55.699Z,99.99
2023-02-16T06:12:55.662Z,99.99
2023-02-16T06:13:55.648Z,99.99
2023-02-16T06:14:55.639Z,99.99
2023-02-16T06:15:55.678Z,99.99
2023-02-16T06:16:55.624Z,99.99
2023-02-16T06:17:55.597Z,99.99
2023-02-16T06:18:55.587Z,99.99
2023-02-16T06:19:55.572Z,99.99
2023-02-16T06:20:55.558Z,99.99
2023-02-16T06:21:55.569Z,99.99
2023-02-16T06:22:55.530Z,99.99
2023-02-16T06:23:55.543Z,99.99
2023-02-16T06:24:55.520Z,99.99
2023-02-16T06:25:55.496Z,99.99
2023-02-16T06:26:55.528Z,99.99
2023-02-16T06:27:55.477Z,99.99
2023-02-16T06:28:55.457Z,99.99
2023-02-16T06:29:55.499Z,99.99
2023-02-16T06:30:55.489Z,99.99
2023-02-16T06:31:55.661Z,99.99
2023-02-16T06:32:55.437Z,99.99
2023-02-16T06:33:55.401Z,99.99
2023-02-16T06:34:55.384Z,99.99
2023-02-16T06:35:55.372Z,99.99
2023-02-16T06:36:55.438Z,99.99
2023-02-16T06:37:55.344Z,99.99
2023-02-16T06:38:55.337Z,99.99
2023-02-16T06:39:55.330Z,99.99
2023-02-16T06:40:55.306Z,99.99
2023-02-16T06:41:55.307Z,99.99
2023-02-16T06:42:55.307Z,99.99
2023-02-16T06:43:55.278Z,99.99
2023-02-16T06:44:55.256Z,99.99
2023-02-16T06:45:55.246Z,99.99
2023-02-16T06:46:55.334Z,99.99
2023-02-16T06:47:55.217Z,99.99
2023-02-16T06:48:55.208Z,99.99
2023-02-16T06:49:55.201Z,99.99
2023-02-16T06:50:55.186Z,99.99
2023-02-16T06:51:55.199Z,99.99
2023-02-16T06:52:55.158Z,99.99
2023-02-16T06:53:55.158Z,99.99
2023-02-16T06:54:55.130Z,99.99
2023-02-16T06:55:55.121Z,99.99
2023-02-16T06:56:55.123Z,99.99
2023-02-16T06:57:55.097Z,99.99
2023-02-16T06:58:55.214Z,99.99
2023-02-16T06:59:55.070Z,99.99
2023-02-16T07:00:55.143Z,99.99
2023-02-16T07:01:55.084Z,99.99
2023-02-16T07:02:55.061Z,99.99
2023-02-16T07:03:55.021Z,99.99
2023-02-16T07:04:55.006Z,99.99
2023-02-16T07:05:54.997Z,99.99
2023-02-16T07:06:54.994Z,99.99
2023-02-16T07:07:54.969Z,99.99
2023-02-16T07:08:54.958Z,99.99
2023-02-16T07:09:54.947Z,99.99
2023-02-16T07:10:54.937Z,99.99
2023-02-16T07:11:54.951Z,99.99
2023-02-16T07:12:54.905Z,99.99
2023-02-16T07:13:54.903Z,99.99
2023-02-16T07:14:54.921Z,99.99
2023-02-16T07:15:54.895Z,99.99
2023-02-16T07:16:54.855Z,99.99
2023-02-16T07:17:54.858Z,99.99
2023-02-16T07:18:54.825Z,99.99
2023-02-16T07:19:54.814Z,99.99
2023-02-16T07:20:54.798Z,99.99
2023-02-16T07:21:54.789Z,99.99
2023-02-16T07:22:54.790Z,99.99
2023-02-16T07:23:54.771Z,99.99
2023-02-16T07:24:54.751Z,99.99
2023-02-16T07:25:54.746Z,99.99
2023-02-16T07:26:54.730Z,99.99
2023-02-16T07:27:54.734Z,99.99
2023-02-16T07:28:54.723Z,99.99
2023-02-16T07:29:54.784Z,99.99
2023-02-16T07:30:54.818Z,99.99
2023-02-16T07:31:54.806Z,99.99
2023-02-16T07:32:54.660Z,99.99
2023-02-16T07:33:54.631Z,99.99
2023-02-16T07:34:54.622Z,99.99
2023-02-16T07:35:54.609Z,99.99
2023-02-16T07:36:54.600Z,99.99
2023-02-16T07:37:54.608Z,99.99
2023-02-16T07:38:54.571Z,99.99
2023-02-16T07:39:54.554Z,99.99
2023-02-16T07:40:54.543Z,99.99
2023-02-16T07:41:54.529Z,99.99
2023-02-16T07:42:54.523Z,99.99
2023-02-16T07:43:54.524Z,99.99
2023-02-16T07:44:54.492Z,99.99
2023-02-16T07:45:54.631Z,99.99
2023-02-16T07:46:54.577Z,99.99
2023-02-16T07:47:54.456Z,99.99
2023-02-16T07:48:54.473Z,99.99
2023-02-16T07:49:54.426Z,99.99
2023-02-16T07:50:54.414Z,99.99
2023-02-16T07:51:54.399Z,99.99
2023-02-16T07:52:54.384Z,99.99
2023-02-16T07:53:54.390Z,99.99
2023-02-16T07:54:54.361Z,99.99
2023-02-16T07:55:54.376Z,99.99
2023-02-16T07:56:54.343Z,99.99
2023-02-16T07:57:54.333Z,99.99
2023-02-16T07:58:54.331Z,99.99
2023-02-16T07:59:54.304Z,99.99
2023-02-16T08:00:54.278Z,99.99
2023-02-16T08:01:54.451Z,99.99
2023-02-16T08:02:54.492Z,99.99
2023-02-16T08:03:54.257Z,99.99
2023-02-16T08:04:54.249Z,99.99
2023-02-16T08:05:54.215Z,99.99
2023-02-16T08:06:54.202Z,99.99
2023-02-16T08:07:54.193Z,99.99
2023-02-16T08:08:54.189Z,99.99
2023-02-16T08:09:54.168Z,99.99
2023-02-16T08:10:54.146Z,99.99
2023-02-16T08:11:54.140Z,99.99
2023-02-16T08:12:54.122Z,99.99
2023-02-16T08:13:54.147Z,99.99
2023-02-16T08:14:54.102Z,99.99
2023-02-16T08:15:54.089Z,99.99
2023-02-16T08:16:56.336Z,99.99
2023-02-16T08:17:54.065Z,99.99
2023-02-16T08:18:54.091Z,99.99
2023-02-16T08:19:54.039Z,99.99
2023-02-16T08:21:03.890Z,99.99
2023-02-16T08:21:54.015Z,99.99
2023-02-16T08:22:54.000Z,99.99
2023-02-16T08:23:54.004Z,99.99
2023-02-16T08:24:53.980Z,99.99
2023-02-16T08:25:53.964Z,99.99
2023-02-16T08:26:54.024Z,99.99
2023-02-16T08:27:53.939Z,99.99
2023-02-16T08:28:53.943Z,99.99
2023-02-16T08:29:53.958Z,99.99
2023-02-16T08:30:53.994Z,99.99
2023-02-16T08:31:53.954Z,99.99
2023-02-16T08:32:53.872Z,99.99
2023-02-16T08:33:53.880Z,99.99
2023-02-16T08:34:53.868Z,99.99
2023-02-16T08:35:53.840Z,99.99
2023-02-16T08:36:53.820Z,99.99
2023-02-16T08:37:53.807Z,99.99
2023-02-16T08:38:53.809Z,99.99
2023-02-16T08:39:53.797Z,99.99
2023-02-16T08:40:53.770Z,99.99
2023-02-16T08:41:53.760Z,99.99
2023-02-16T08:42:53.744Z,99.99
2023-02-16T08:43:53.750Z,99.99
2023-02-16T08:44:53.780Z,99.99
2023-02-16T08:45:53.764Z,99.99
2023-02-16T08:46:53.692Z,99.99
2023-02-16T08:47:53.685Z,99.99
2023-02-16T08:48:55.811Z,99.99
2023-02-16T08:49:53.653Z,99.99
2023-02-16T08:50:53.983Z,99.99
2023-02-16T08:51:53.625Z,99.99
2023-02-16T08:52:53.614Z,99.99
2023-02-16T08:53:53.606Z,99.99
2023-02-16T08:54:53.599Z,99.99
2023-02-16T08:55:53.573Z,99.99
2023-02-16T08:56:53.562Z,99.99
2023-02-16T08:57:53.548Z,99.99
2023-02-16T08:58:53.534Z,99.99
2023-02-16T08:59:53.538Z,99.99
2023-02-16T09:00:53.527Z,99.99
2023-02-16T09:01:53.494Z,99.99
2023-02-16T09:02:53.491Z,99.99
2023-02-16T09:03:53.482Z,99.99
2023-02-16T09:04:53.478Z,99.99
2023-02-16T09:05:53.445Z,99.99
2023-02-16T09:06:53.450Z,99.99
2023-02-16T09:07:53.421Z,99.99
2023-02-16T09:08:53.403Z,99.99
2023-02-16T09:09:53.412Z,99.99
2023-02-16T09:10:53.378Z,99.99
2023-02-16T09:11:53.369Z,99.99
2023-02-16T09:12:53.357Z,99.99
2023-02-16T09:13:53.350Z,99.99
2023-02-16T09:14:53.341Z,99.99
2023-02-16T09:15:53.320Z,99.99
2023-02-16T09:16:53.324Z,99.99
2023-02-16T09:17:53.290Z,99.99
2023-02-16T09:18:53.275Z,99.99
2023-02-16T09:19:53.279Z,99.99
2023-02-16T09:20:53.253Z,99.99
2023-02-16T09:21:53.247Z,99.99
2023-02-16T09:22:53.251Z,99.99
2023-02-16T09:23:53.219Z,99.99
2023-02-16T09:24:53.217Z,99.99
2023-02-16T09:25:53.186Z,99.99
2023-02-16T09:26:53.181Z,99.99
2023-02-16T09:27:53.175Z,99.99
2023-02-16T09:28:53.149Z,99.99
2023-02-16T09:29:53.198Z,99.99
2023-02-16T09:30:53.178Z,99.99
2023-02-16T09:31:53.136Z,99.99
2023-02-16T09:32:53.096Z,99.99
2023-02-16T09:33:53.082Z,99.99
2023-02-16T09:34:53.086Z,99.99
2023-02-16T09:35:53.053Z,99.99
2023-02-16T09:36:53.054Z,99.93
2023-02-16T09:37:53.035Z,99.05
2023-02-16T09:38:53.041Z,98.43
2023-02-16T09:39:53.032Z,97.70
2023-02-16T09:40:52.993Z,96.70
2023-02-16T09:41:52.982Z,97.53
2023-02-16T09:42:52.971Z,97.27
2023-02-16T09:43:52.953Z,97.83
2023-02-16T09:44:52.957Z,98.71
2023-02-16T09:45:52.967Z,99.29
2023-02-16T09:46:52.922Z,98.93
2023-02-16T09:47:52.916Z,98.41
2023-02-16T09:48:52.893Z,98.26
2023-02-16T09:49:52.898Z,97.47
2023-02-16T09:50:54.586Z,98.20
2023-02-16T09:51:52.850Z,98.41
2023-02-16T09:52:52.849Z,98.10
2023-02-16T09:53:52.834Z,97.99
2023-02-16T09:54:52.854Z,98.25
2023-02-16T09:55:52.802Z,98.62
2023-02-16T09:56:52.787Z,98.93
2023-02-16T09:57:52.780Z,98.68
2023-02-16T09:58:52.761Z,98.47
2023-02-16T09:59:52.760Z,97.53
2023-02-16T10:00:52.732Z,97.53
2023-02-16T10:01:52.718Z,97.95
2023-02-16T10:02:52.710Z,97.74
2023-02-16T10:03:52.709Z,97.33
2023-02-16T10:04:52.695Z,97.28
2023-02-16T10:05:52.666Z,96.97
2023-02-16T10:06:52.658Z,96.72
2023-02-16T10:07:52.674Z,96.25
2023-02-16T10:08:52.687Z,95.59
2023-02-16T10:09:52.612Z,93.72
2023-02-16T10:10:52.661Z,93.76
2023-02-16T10:11:52.590Z,93.66
2023-02-16T10:12:52.583Z,94.24
2023-02-16T10:13:52.575Z,94.86
2023-02-16T10:14:52.551Z,94.30
2023-02-16T10:15:54.094Z,93.72
2023-02-16T10:16:52.527Z,93.97
2023-02-16T10:17:52.522Z,93.97
2023-02-16T10:18:52.502Z,94.07
2023-02-16T10:19:52.485Z,94.38
2023-02-16T10:20:52.493Z,94.74
2023-02-16T10:21:52.479Z,95.09
2023-02-16T10:22:52.449Z,95.57
2023-02-16T10:23:52.444Z,95.99
2023-02-16T10:24:52.424Z,95.94
2023-02-16T10:25:52.422Z,95.42
2023-02-16T10:26:52.423Z,95.40
2023-02-16T10:27:52.390Z,96.28
2023-02-16T10:28:52.378Z,97.33
2023-02-16T10:29:52.484Z,97.68
2023-02-16T10:30:52.486Z,98.36
2023-02-16T10:31:52.397Z,98.43
2023-02-16T10:32:52.324Z,98.07
2023-02-16T10:33:52.337Z,97.13
2023-02-16T10:34:52.302Z,96.61
2023-02-16T10:35:52.310Z,96.04
2023-02-16T10:36:52.271Z,95.59
2023-02-16T10:37:52.262Z,94.13
2023-02-16T10:38:52.253Z,93.88
2023-02-16T10:39:52.235Z,92.88
2023-02-16T10:40:52.237Z,93.76
2023-02-16T10:41:52.208Z,94.03
2023-02-16T10:42:52.263Z,93.88
2023-02-16T10:43:52.193Z,93.99
2023-02-16T10:44:52.190Z,93.49
2023-02-16T10:45:52.775Z,92.30
2023-02-16T10:46:52.149Z,90.97
2023-02-16T10:47:52.131Z,89.62
2023-02-16T10:48:52.130Z,89.31
2023-02-16T10:49:52.109Z,89.31
2023-02-16T10:50:52.108Z,89.56
2023-02-16T10:51:52.077Z,89.67
2023-02-16T10:52:52.071Z,89.67
2023-02-16T10:53:52.060Z,89.62
2023-02-16T10:54:52.045Z,89.21
2023-02-16T10:55:52.042Z,88.55
2023-02-16T10:56:52.011Z,88.21
2023-02-16T10:57:51.999Z,89.04
2023-02-16T10:58:52.008Z,89.56
2023-02-16T10:59:51.984Z,89.36
2023-02-16T11:00:51.972Z,89.67
2023-02-16T11:01:51.974Z,89.15
2023-02-16T11:02:51.934Z,89.31
2023-02-16T11:03:51.940Z,89.36
2023-02-16T11:04:51.920Z,89.67
2023-02-16T11:05:51.913Z,89.69
2023-02-16T11:06:51.879Z,87.41
2023-02-16T11:07:51.885Z,83.09
2023-02-16T11:08:51.866Z,78.44
2023-02-16T11:09:51.846Z,74.70
2023-02-16T11:10:51.848Z,72.51
2023-02-16T11:11:51.829Z,72.48
2023-02-16T11:12:51.806Z,70.29
2023-02-16T11:13:51.790Z,70.02
2023-02-16T11:14:51.808Z,70.67
2023-02-16T11:15:51.785Z,71.11
2023-02-16T11:16:51.764Z,73.19
2023-02-16T11:17:51.735Z,73.91
2023-02-16T11:18:51.728Z,73.40
2023-02-16T11:19:51.717Z,74.22
2023-02-16T11:20:51.704Z,74.22
2023-02-16T11:21:51.711Z,77.01
2023-02-16T11:22:51.683Z,80.48
2023-02-16T11:23:51.662Z,81.27
2023-02-16T11:24:51.649Z,79.33
2023-02-16T11:25:51.632Z,77.28
2023-02-16T11:26:51.632Z,77.28
2023-02-16T11:27:51.608Z,76.42
2023-02-16T11:28:51.600Z,75.08
2023-02-16T11:29:51.582Z,73.10
2023-02-16T11:30:51.682Z,69.65
2023-02-16T11:31:51.723Z,68.66
2023-02-16T11:32:51.548Z,66.22
2023-02-16T11:33:51.535Z,64.12
2023-02-16T11:34:51.519Z,62.66
2023-02-16T11:35:51.503Z,63.18
2023-02-16T11:36:51.502Z,61.24
2023-02-16T11:37:51.471Z,62.29
2023-02-16T11:38:51.464Z,61.68
2023-02-16T11:39:51.454Z,61.95
2023-02-16T11:40:51.434Z,63.22
2023-02-16T11:41:51.440Z,65.34
2023-02-16T11:42:51.411Z,65.08
2023-02-16T11:43:51.395Z,69.40
2023-02-16T11:44:51.390Z,69.40
2023-02-16T11:45:51.642Z,70.97
2023-02-16T11:46:51.421Z,70.87
2023-02-16T11:47:51.334Z,71.52
2023-02-16T11:48:51.324Z,72.68
2023-02-16T11:49:51.551Z,73.74
2023-02-16T11:50:52.249Z,73.98
2023-02-16T11:51:51.299Z,75.15
2023-02-16T11:52:51.269Z,76.01
2023-02-16T11:53:51.249Z,76.62
2023-02-16T11:54:51.240Z,77.38
2023-02-16T11:55:51.234Z,77.51
2023-02-16T11:56:51.289Z,78.34
2023-02-16T11:57:51.210Z,79.14
2023-02-16T11:58:51.188Z,80.51
2023-02-16T11:59:51.169Z,81.17
2023-02-16T12:00:51.157Z,81.85
2023-02-16T12:01:51.169Z,81.85
2023-02-16T12:02:51.149Z,81.85
2023-02-16T12:03:51.178Z,81.99
2023-02-16T12:04:51.284Z,82.40
2023-02-16T12:05:51.091Z,83.03
2023-02-16T12:06:51.097Z,82.33
2023-02-16T12:07:51.073Z,81.37
2023-02-16T12:08:51.052Z,79.75
2023-02-16T12:09:51.045Z,78.33
2023-02-16T12:10:51.032Z,77.17
2023-02-16T12:11:51.029Z,76.97
2023-02-16T12:12:50.998Z,76.31
2023-02-16T12:13:50.994Z,76.00
2023-02-16T12:14:50.983Z,75.25
2023-02-16T12:15:51.098Z,74.43
2023-02-16T12:16:50.967Z,75.56
2023-02-16T12:17:50.930Z,74.70
2023-02-16T12:18:50.945Z,75.01
2023-02-16T12:19:50.906Z,74.15
2023-02-16T12:20:50.894Z,73.64
2023-02-16T12:21:50.895Z,73.74
2023-02-16T12:22:50.865Z,73.74
2023-02-16T12:23:50.853Z,73.57
2023-02-16T12:24:50.843Z,73.78
2023-02-16T12:25:50.824Z,74.87
2023-02-16T12:26:50.842Z,75.73
2023-02-16T12:27:50.798Z,76.59
2023-02-16T12:28:50.811Z,77.51
2023-02-16T12:29:50.780Z,77.55
2023-02-16T12:30:50.808Z,77.55
2023-02-16T12:31:50.779Z,77.75
2023-02-16T12:32:50.752Z,78.17
2023-02-16T12:33:50.722Z,77.62
2023-02-16T12:34:50.726Z,77.10
2023-02-16T12:35:50.696Z,76.35
2023-02-16T12:36:50.680Z,76.10
2023-02-16T12:37:50.682Z,74.84
2023-02-16T12:38:50.661Z,74.98
2023-02-16T12:39:50.638Z,74.70
2023-02-16T12:40:50.661Z,73.74
2023-02-16T12:41:50.613Z,72.07
2023-02-16T12:42:50.612Z,69.21
2023-02-16T12:43:50.580Z,68.46
2023-02-16T12:44:50.610Z,66.30
2023-02-16T12:45:50.587Z,63.79
2023-02-16T12:46:50.540Z,65.13
2023-02-16T12:47:50.546Z,66.59
2023-02-16T12:48:50.521Z,66.39
2023-02-16T12:49:50.500Z,66.93
2023-02-16T12:50:50.506Z,66.05
2023-02-16T12:51:50.479Z,65.92